Decoded Metar for OIBJ ( in _UNIDENTIFIED) (IATA:N/A) | Meteo·Mobile Aviation Weather
aviador You're here:

OIBJ Decoded Metar

in _UNIDENTIFIED
Report Time2018-09-25 14:00:00
UTC Time2018-09-25 14:51:32
Flight Rules vfr VFR
Wind270° at 08 kt
W.Decomp.*RWY 29: 7.4 kt HW 3 kt LCW
W.Rank270° ranks 14
Current wind is above 270° avg. (7.1)
Visibility9999 m
Phenomena:N/A
Clouds:N/A
Expected CloudBase > 9,200 ft AGL from Temp-Dew spread
CeilingNone
Temp34°C
Dew Point11°C (24% RH)
Heat Index32.4°C
AAT31.3°C
QNH1009 hPa
Raw Report
METAR OIBJ 251400Z 27008KT CAVOK 34/11 Q1009=

Extra information for OIBJ:More info

Metar Taf Metar & Taf Last 4 Metars F.Rules Stats Wind Profile Meteogram Temp Stats Metar ALERT Operation Metar Decoded Social comments